Mermaid Express — H9PV — position and weather

sailwx.info

Track history (hours):
 
Tides and Currents Weather Stations Pressure Air Temp Water Temp Dewpoint Dewpoint Depression Visibility Wind Speed Wind Dir Waves Ship Positions

Mermaid Express

Last reported at 2016-Nov-28 19:31 UTC. Time now 2016-Dec-08 14:20 UTC.
Position N 09°11' W 079°52'.
Warning: this ship's position is 9 days out of date.

Length 179 m; draft 12 m.

Type: Tanker. MMSI: 352866000.

Date/timePositionNaut miles runAvg speedWind from/ knotsBaromVisibWave heightAir tempDewpointWater temp
2016-Nov-28 19:31N 09°11' W 079°52'6 6.6
2016-Nov-28 18:33N 09°16' W 079°55'0 0.4
2016-Nov-28 17:33N 09°17' W 079°55'0 0.3
2016-Nov-28 16:33N 09°17' W 079°55'3 3.5
2016-Nov-28 15:33N 09°20' W 079°55'6 4.6
2016-Nov-28 14:11N 09°27' W 079°55'3 3.5
2016-Nov-28 13:25N 09°29' W 079°56'0 0.0
2016-Nov-27 00:31N 09°29' W 079°56'0 0.0
2016-Nov-26 22:13N 09°29' W 079°56'0 0.0
2016-Nov-26 21:31N 09°29' W 079°56'0 0.0
2016-Nov-26 14:19N 09°29' W 079°56'0 0.0
2016-Nov-26 13:19N 09°29' W 079°56'0 0.0
2016-Nov-25 20:18N 09°29' W 079°56'  
2016-Nov-19 23:33N 29°21' W 094°43'8 8.2
2016-Nov-19 22:33N 29°23' W 094°52'  
Track history (hours):
 
Tides and Currents Weather Stations Pressure Air Temp Water Temp Dewpoint Dewpoint Depression Visibility Wind Speed Wind Dir Waves Ship Positions

Mermaid Express

Last reported at 2016-Nov-28 19:31 UTC. Time now 2016-Dec-08 14:20 UTC.
Position N 09°11' W 079°52'.
Warning: this ship's position is 9 days out of date.

Length 179 m; draft 12 m.

Type: Tanker. MMSI: 352866000.

Date/timePositionNaut miles runAvg speedWind from/ knotsBaromVisibWave heightAir tempDewpointWater temp
2016-Nov-28 19:31N 09°11' W 079°52'6 6.6
2016-Nov-28 18:33N 09°16' W 079°55'0 0.4
2016-Nov-28 17:33N 09°17' W 079°55'0 0.3
2016-Nov-28 16:33N 09°17' W 079°55'3 3.5
2016-Nov-28 15:33N 09°20' W 079°55'6 4.6
2016-Nov-28 14:11N 09°27' W 079°55'3 3.5
2016-Nov-28 13:25N 09°29' W 079°56'0 0.0
2016-Nov-27 00:31N 09°29' W 079°56'0 0.0
2016-Nov-26 22:13N 09°29' W 079°56'0 0.0
2016-Nov-26 21:31N 09°29' W 079°56'0 0.0
2016-Nov-26 14:19N 09°29' W 079°56'0 0.0
2016-Nov-26 13:19N 09°29' W 079°56'0 0.0
2016-Nov-25 20:18N 09°29' W 079°56'  
2016-Nov-19 23:33N 29°21' W 094°43'8 8.2
2016-Nov-19 22:33N 29°23' W 094°52'  

Dump ship's entire track history